Eccles, WV (25836)

9:53 AM EDT on September 22, 2014 (GMT -0400)
Stanaford Rd | Change Station
CLOSE
Current Station
Personal Weather Station
Location: Beckley, WV
Elevation: 2313 ft
Nearby Weather Stations

Elev 2313 ft 37.79 °N, 81.17 °W | Updated 14 minutes ago

Overcast
Overcast
54.1 °F
Feels Like 54.1 °F
N
12.5
Wind Variable Wind from West

Today
High -- | Low -- °F
--% Chance of Precip.
Yesterday
High -- | Low -- °F
Precip. -- in
7:12 AM 7:22 PM
Waning Crescent, 3% visible
Pressure 30.09 in
Visibility 10.0 miles
Clouds Few 1200 ft
Overcast 2800 ft
Dew Point 47 °F
Humidity 76%
Rainfall 0.00 in
Snow Depth Not available.
UV 0 out of 12
Pollen 4.00 out of 12
Air Quality Not available.
Flu Activity Not available.
METAR KBKW 221251Z AUTO 32007KT 10SM FEW012 OVC028 11/08 A3013 RMK AO2 SLP189 T01110078 TSNO

More Conditions Fewer Conditions

Pressure 30.09 in
Visibility 10.0 miles
Clouds Few 1200 ft
Overcast 2800 ft
Dew Point 47 °F
Humidity 76%
Rainfall 0.00 in
Snow Depth Not available.
UV 0 out of 12
Pollen 4.00 out of 12
Air Quality Not available.
Flu Activity Not available.
METAR KBKW 221251Z AUTO 32007KT 10SM FEW012 OVC028 11/08 A3013 RMK AO2 SLP189 T01110078 TSNO

More Conditions Fewer Conditions

10-Day Weather Forecast

Almanac

Astronomy

Sep. 22, 2014 Rise Set
Actual Time 7:12 AM EDT 7:22 PM EDT
Civil Twilight 6:46 AM EDT 7:48 PM EDT
Nautical Twilight 6:15 AM EDT 8:18 PM EDT
Astronomical Twilight 5:44 AM EDT 8:49 PM EDT
Moon 5:41 AM EDT 6:28 PM EDT
Length of Visible Light 13h 01m
Length of Day
12h 09m
Tomorrow will be 2m 25s shorter.
Waning Crescent, 3% of the Moon is Illuminated
Today
Waning Crescent
Sep 24
New
Oct 1
First Quarter
Oct 8
Full
Oct 15
Last Quarter

Today's Extremes

State Highs State Lows

Community

WunderPhotos

Upload Photos

1,755,436 photos uploaded!

WunderBlogs® & News

By Dr. Jeff Masters
Director of Meteorology, Weather Underground
By Kari Strenfel
Meteorologist, Weather Underground
By Christopher C. Burt
Weather Historian, Weather Underground
September 22, 2014
September 22, 2014
September 22, 2014

Nearby

Snow Depth

Station Depth Elevation
No new snow has been reported.

Earthquake Activity

City Distance Mag. Time & Date
No recent earthquake activity has been reported nearby.
Minimum magnitude displayed is 2.5.

Coastal Water Temperatures

Place Temperature
No Stations Reporting

Nearby Weather Stations